Time;durP1;ratioP1;P1;durP2;ratioP2;P2;SDS_P1;SDS_P2;PMS_P1;PMS_P2;Temp;Humidity;BMP_temperature;BMP_pressure;BME280_temperature;BME280_humidity;BME280_pressure;Samples;Min_cycle;Max_cycle;Signal;HPM_P1;HPM_P2
2021/12/27 00:00:46;;;;;;;43.20;22.00;;;;;;;6.33;83.85;94455.41;5061378;28;20175;-80
2021/12/27 00:03:12;;;;;;;47.87;22.30;;;;;;;6.10;83.81;94448.88;5060896;28;20232;-82
2021/12/27 00:05:38;;;;;;;42.63;22.03;;;;;;;6.14;84.54;94445.69;5063287;28;20171;-81
2021/12/27 00:08:03;;;;;;;40.77;23.23;;;;;;;6.30;84.35;94466.28;5062164;28;20213;-81
2021/12/27 00:10:29;;;;;;;52.87;24.33;;;;;;;5.97;84.60;94467.88;5061260;28;20163;-81
2021/12/27 00:12:56;;;;;;;45.73;21.50;;;;;;;5.95;85.87;94447.22;5062234;28;20171;-81
2021/12/27 00:15:21;;;;;;;47.33;21.97;;;;;;;5.96;85.42;94414.06;5061765;28;20174;-81
2021/12/27 00:17:47;;;;;;;50.13;22.90;;;;;;;6.09;84.71;94468.97;5061945;28;20175;-81
2021/12/27 00:20:17;;;;;;;38.43;18.87;;;;;;;6.14;85.39;94452.75;5062168;28;20159;-81
2021/12/27 00:22:45;;;;;;;41.83;19.03;;;;;;;6.20;85.55;94447.53;5060970;28;20724;-81
2021/12/27 00:25:11;;;;;;;41.00;19.67;;;;;;;6.21;84.90;94428.25;5062260;28;20261;-81
2021/12/27 00:27:37;;;;;;;42.43;19.70;;;;;;;6.28;84.66;94408.16;5055675;28;20187;-81
2021/12/27 00:30:04;;;;;;;42.27;19.97;;;;;;;6.26;83.72;94386.66;5061099;28;20195;-82
2021/12/27 00:32:29;;;;;;;37.90;19.33;;;;;;;6.40;83.75;94445.78;5063026;28;20198;-82
2021/12/27 00:34:55;;;;;;;34.43;16.73;;;;;;;6.35;83.65;94436.94;5063886;28;20170;-81
2021/12/27 00:37:20;;;;;;;37.57;17.43;;;;;;;6.53;83.97;94442.44;5066622;28;20177;-82
2021/12/27 00:39:45;;;;;;;36.60;18.20;;;;;;;6.53;83.55;94444.25;5061314;28;20175;-82
2021/12/27 00:42:11;;;;;;;37.70;18.53;;;;;;;6.43;83.18;94429.72;5061671;28;20629;-82
2021/12/27 00:44:36;;;;;;;42.90;19.40;;;;;;;6.58;83.49;94452.28;5061371;28;20183;-82
2021/12/27 00:47:02;;;;;;;36.07;17.37;;;;;;;6.51;82.79;94441.81;5063642;28;20248;-82
2021/12/27 00:49:28;;;;;;;33.13;16.67;;;;;;;6.53;83.13;94450.28;5061841;28;20202;-82
2021/12/27 00:51:53;;;;;;;32.87;15.73;;;;;;;6.55;82.97;94450.09;5061420;28;20982;-82
2021/12/27 00:54:19;;;;;;;34.77;15.43;;;;;;;6.53;82.67;94449.47;5058829;28;20627;-82
2021/12/27 00:56:44;;;;;;;34.80;17.00;;;;;;;6.54;82.55;94438.81;5044981;28;20658;-82
2021/12/27 00:59:10;;;;;;;32.20;16.30;;;;;;;6.68;82.45;94447.50;5061982;28;20173;-82
2021/12/27 01:01:36;;;;;;;34.20;17.43;;;;;;;6.62;82.04;94443.88;5062579;28;20575;-82
2021/12/27 01:04:03;;;;;;;32.73;16.97;;;;;;;6.75;81.47;94464.81;5067401;28;20171;-82
2021/12/27 01:06:35;;;;;;;33.50;16.60;;;;;;;6.67;82.31;94472.84;5065494;28;20171;-82
2021/12/27 01:09:01;;;;;;;29.53;17.23;;;;;;;6.71;82.40;94449.75;5061879;28;20705;-82
2021/12/27 01:14:16;;;;;;;36.03;18.23;;;;;;;6.71;82.54;94439.28;5062182;28;20186;-81
2021/12/27 01:16:44;;;;;;;29.30;15.50;;;;;;;6.73;82.11;94439.91;5063281;28;20187;-81
2021/12/27 01:19:10;;;;;;;31.67;15.67;;;;;;;6.82;82.51;94455.22;5057235;28;20197;-81
2021/12/27 01:21:36;;;;;;;35.47;17.07;;;;;;;6.88;82.82;94437.91;5060999;28;20642;-81
2021/12/27 01:24:03;;;;;;;54.67;23.40;;;;;;;6.83;82.54;94461.25;5060792;28;20217;-81
2021/12/27 01:26:28;;;;;;;51.77;21.27;;;;;;;6.71;83.05;94468.84;5063044;28;20641;-81
2021/12/27 01:29:00;;;;;;;36.73;18.90;;;;;;;6.73;83.07;94452.97;5062883;28;20205;-81
2021/12/27 01:31:25;;;;;;;36.23;18.93;;;;;;;6.72;82.78;94435.66;5072513;28;20178;-81
2021/12/27 01:33:51;;;;;;;44.43;19.07;;;;;;;6.80;82.76;94440.72;5060859;28;20559;-81
2021/12/27 01:36:17;;;;;;;51.23;20.23;;;;;;;6.62;82.73;94406.47;5060693;28;20562;-81
2021/12/27 01:38:44;;;;;;;50.80;20.97;;;;;;;6.85;82.93;94429.63;5060707;28;20246;-81
2021/12/27 01:41:13;;;;;;;39.27;19.10;;;;;;;6.90;82.45;94432.47;5069882;28;20655;-81
2021/12/27 01:43:40;;;;;;;48.43;21.30;;;;;;;6.64;82.40;94433.22;5068880;28;20179;-81
2021/12/27 01:46:09;;;;;;;32.10;15.87;;;;;;;6.78;82.58;94437.47;5059005;28;20669;-81
2021/12/27 01:48:38;;;;;;;33.43;16.07;;;;;;;6.78;83.14;94427.81;5060504;28;20571;-81
2021/12/27 01:51:10;;;;;;;31.60;16.07;;;;;;;6.85;82.57;94443.53;5069784;28;20173;-81
2021/12/27 01:53:37;;;;;;;28.57;15.27;;;;;;;6.72;82.86;94449.53;5066047;28;20190;-81
2021/12/27 01:56:05;;;;;;;30.63;15.23;;;;;;;6.55;83.24;94422.13;5054716;28;20210;-81
2021/12/27 01:58:31;;;;;;;28.07;15.93;;;;;;;6.64;83.33;94391.38;5062003;28;20163;-81
2021/12/27 02:00:58;;;;;;;31.33;15.43;;;;;;;6.35;83.40;94364.56;5062780;28;20983;-81
2021/12/27 02:03:26;;;;;;;29.93;14.57;;;;;;;6.55;83.19;94403.03;5062885;28;20183;-81
2021/12/27 02:05:53;;;;;;;26.13;13.47;;;;;;;6.82;82.73;94417.78;5062735;28;20197;-81
2021/12/27 02:08:19;;;;;;;27.10;13.47;;;;;;;6.74;82.62;94429.25;5060629;28;20189;-81
2021/12/27 02:10:45;;;;;;;27.03;13.53;;;;;;;6.67;83.38;94440.66;5065442;28;20256;-81
2021/12/27 02:13:11;;;;;;;21.33;12.23;;;;;;;6.58;83.99;94373.84;5062599;28;20182;-80
2021/12/27 02:15:36;;;;;;;21.40;13.13;;;;;;;6.69;83.56;94381.13;5053594;28;20639;-80
2021/12/27 02:18:03;;;;;;;24.37;12.33;;;;;;;6.75;83.84;94375.91;5059895;28;20178;-80
2021/12/27 02:20:31;;;;;;;28.40;13.50;;;;;;;6.89;84.22;94402.91;5051807;28;20171;-80
2021/12/27 02:23:02;;;;;;;29.83;15.03;;;;;;;6.76;84.95;94408.91;5060366;28;20167;-80
2021/12/27 02:25:32;;;;;;;24.13;14.33;;;;;;;6.79;85.19;94402.47;5054001;28;20170;-80
2021/12/27 02:27:59;;;;;;;31.23;13.60;;;;;;;6.90;85.62;94401.09;5062565;28;20649;-80
2021/12/27 02:30:25;;;;;;;22.73;13.73;;;;;;;6.93;85.54;94391.00;5064977;28;20716;-80
2021/12/27 02:32:54;;;;;;;26.80;14.27;;;;;;;6.86;85.17;94387.59;5063670;28;20262;-80
2021/12/27 02:35:22;;;;;;;27.10;14.37;;;;;;;6.89;85.38;94410.75;5075234;28;20169;-80
2021/12/27 02:37:48;;;;;;;25.00;13.93;;;;;;;6.95;85.37;94406.53;5066463;28;20204;-80
2021/12/27 02:40:15;;;;;;;34.07;15.33;;;;;;;7.01;85.63;94401.28;5065962;28;20178;-80
2021/12/27 02:43:03;;;;;;;33.23;16.50;;;;;;;7.08;85.31;94402.13;5066156;28;20179;-80
2021/12/27 02:45:31;;;;;;;30.63;17.00;;;;;;;7.05;84.74;94378.97;5066310;28;20182;-80
2021/12/27 02:47:57;;;;;;;35.07;18.23;;;;;;;7.10;84.58;94387.00;5074829;28;20607;-80
2021/12/27 02:50:25;;;;;;;45.70;22.67;;;;;;;7.09;84.96;94401.09;5074748;28;20187;-80
2021/12/27 02:52:50;;;;;;;45.57;22.07;;;;;;;7.02;85.48;94379.34;5074802;28;20622;-80
2021/12/27 02:55:17;;;;;;;46.20;22.70;;;;;;;6.99;85.02;94398.09;5074744;28;20204;-80
2021/12/27 02:57:44;;;;;;;41.27;20.37;;;;;;;6.91;85.13;94353.00;5065485;28;20219;-80
2021/12/27 03:00:15;;;;;;;39.17;20.63;;;;;;;6.99;85.23;94392.03;5065747;28;20239;-80
2021/12/27 03:02:42;;;;;;;30.63;17.00;;;;;;;6.73;85.97;94367.47;5065596;28;20641;-80
2021/12/27 03:05:09;;;;;;;29.30;17.70;;;;;;;6.58;86.42;94368.63;5063350;28;20199;-80
2021/12/27 03:07:39;;;;;;;32.77;17.60;;;;;;;6.65;86.00;94393.00;5058091;28;20182;-80
2021/12/27 03:10:07;;;;;;;27.30;15.03;;;;;;;6.55;86.46;94369.84;5065653;28;20190;-80
2021/12/27 03:12:32;;;;;;;28.83;15.60;;;;;;;6.56;86.45;94381.91;5064965;28;20198;-80
2021/12/27 03:14:58;;;;;;;26.23;14.70;;;;;;;6.62;86.81;94343.72;5063410;28;20221;-80
2021/12/27 03:17:23;;;;;;;28.47;15.77;;;;;;;6.75;86.07;94357.59;5063078;28;20233;-80
2021/12/27 03:19:49;;;;;;;24.70;14.27;;;;;;;6.50;86.87;94387.09;5063378;28;20164;-80
2021/12/27 03:22:14;;;;;;;26.27;14.90;;;;;;;6.62;86.57;94330.63;5071488;28;20232;-80
2021/12/27 03:24:39;;;;;;;22.63;11.73;;;;;;;6.50;85.74;94356.53;5062513;28;20182;-80
2021/12/27 03:27:05;;;;;;;25.40;12.80;;;;;;;6.75;86.45;94372.47;5054617;28;20166;-80
2021/12/27 03:29:31;;;;;;;22.47;12.97;;;;;;;6.77;86.35;94370.47;5061702;28;20603;-80
2021/12/27 03:31:58;;;;;;;22.00;12.77;;;;;;;6.79;86.00;94361.44;5064294;28;20181;-80
2021/12/27 03:34:23;;;;;;;24.63;12.00;;;;;;;6.99;85.39;94382.38;5057125;28;20181;-80
2021/12/27 03:36:49;;;;;;;19.40;10.93;;;;;;;6.93;84.91;94341.31;5074259;28;20154;-80
2021/12/27 03:39:14;;;;;;;23.57;11.30;;;;;;;7.18;84.10;94363.25;5064922;28;20178;-80
2021/12/27 03:41:40;;;;;;;21.53;10.90;;;;;;;7.09;83.79;94385.38;5062664;28;20174;-80
2021/12/27 03:44:06;;;;;;;19.40;11.50;;;;;;;7.03;84.56;94335.69;5062734;28;20206;-80
2021/12/27 03:46:31;;;;;;;23.87;11.67;;;;;;;6.92;84.63;94363.25;5061317;28;20661;-80
2021/12/27 03:48:57;;;;;;;29.77;12.57;;;;;;;6.73;85.14;94304.69;5062672;28;20206;-80
2021/12/27 03:51:22;;;;;;;17.43;10.70;;;;;;;6.70;84.34;94327.81;5062357;28;20179;-80
2021/12/27 03:53:48;;;;;;;20.93;10.87;;;;;;;7.05;84.00;94341.53;5062738;28;20237;-80
2021/12/27 03:56:14;;;;;;;21.93;10.90;;;;;;;7.00;84.09;94300.28;5062182;28;20276;-80
2021/12/27 04:01:31;;;;;;;22.07;11.57;;;;;;;7.18;82.68;94329.22;5050467;28;20197;-80
2021/12/27 04:03:57;;;;;;;22.40;11.93;;;;;;;7.25;83.54;94354.59;5064605;28;20170;-80
2021/12/27 04:06:25;;;;;;;23.13;11.73;;;;;;;7.12;83.49;94330.03;5062007;28;20186;-80
2021/12/27 04:08:50;;;;;;;19.33;10.97;;;;;;;7.36;82.73;94352.16;5060719;28;20210;-80
2021/12/27 04:11:16;;;;;;;21.80;12.50;;;;;;;7.40;82.46;94363.84;5062151;28;20266;-80
2021/12/27 04:13:42;;;;;;;24.03;12.70;;;;;;;7.41;82.43;94370.69;5060751;28;20258;-80
2021/12/27 04:16:07;;;;;;;18.70;11.20;;;;;;;7.45;82.63;94379.75;5062294;28;20265;-80
2021/12/27 04:18:33;;;;;;;23.03;12.90;;;;;;;7.33;82.43;94336.88;5066427;28;20286;-80
2021/12/27 04:20:58;;;;;;;22.30;12.07;;;;;;;7.50;81.31;94352.97;5064150;28;20653;-80
2021/12/27 04:23:24;;;;;;;27.57;13.83;;;;;;;7.35;81.99;94375.94;5063078;28;20181;-80
2021/12/27 04:25:50;;;;;;;23.33;11.57;;;;;;;7.48;82.12;94360.22;5061865;28;20182;-80
2021/12/27 04:28:16;;;;;;;23.47;12.67;;;;;;;7.19;82.62;94383.19;5062691;28;20174;-80
2021/12/27 04:30:43;;;;;;;23.73;13.10;;;;;;;7.06;83.68;94370.09;5063975;28;20255;-80
2021/12/27 04:33:08;;;;;;;21.67;12.70;;;;;;;7.13;83.95;94378.75;5054879;28;20175;-80
2021/12/27 04:35:34;;;;;;;28.60;13.37;;;;;;;7.04;83.63;94353.00;5060291;28;20177;-80
2021/12/27 04:38:00;;;;;;;24.63;12.97;;;;;;;7.16;83.91;94356.63;5058387;28;20181;-79
2021/12/27 04:40:29;;;;;;;24.97;13.57;;;;;;;7.05;83.53;94329.25;5057475;28;20171;-81
2021/12/27 04:42:58;;;;;;;36.50;15.53;;;;;;;7.28;83.26;94362.03;5070294;28;20247;-81
2021/12/27 04:45:24;;;;;;;29.57;15.97;;;;;;;7.36;82.82;94373.09;5061854;28;20300;-81
2021/12/27 04:47:49;;;;;;;35.43;17.73;;;;;;;7.28;83.00;94375.94;5052630;28;20254;-81
2021/12/27 04:50:15;;;;;;;36.93;19.87;;;;;;;7.13;83.06;94357.03;5052406;28;20195;-81
2021/12/27 04:52:42;;;;;;;37.90;19.57;;;;;;;7.31;83.08;94378.16;5062821;28;20212;-80
2021/12/27 04:55:08;;;;;;;37.60;19.97;;;;;;;7.19;83.19;94353.59;5068267;28;20175;-80
2021/12/27 04:57:33;;;;;;;32.83;17.37;;;;;;;7.25;82.81;94360.66;5060176;28;20221;-80
2021/12/27 04:59:59;;;;;;;31.90;16.40;;;;;;;7.33;82.98;94370.09;5061326;28;20631;-80
2021/12/27 05:02:25;;;;;;;35.20;18.37;;;;;;;7.46;82.51;94356.97;5060814;28;20170;-80
2021/12/27 05:04:50;;;;;;;28.33;15.07;;;;;;;6.94;83.10;94350.78;5060765;28;20217;-81
2021/12/27 05:07:16;;;;;;;27.37;15.57;;;;;;;6.67;84.01;94312.53;5061547;28;20181;-80
2021/12/27 05:09:41;;;;;;;26.10;14.50;;;;;;;6.78;84.48;94357.19;5054595;28;20203;-80
2021/12/27 05:12:09;;;;;;;24.00;13.53;;;;;;;6.76;84.72;94340.91;5060464;28;20185;-80
2021/12/27 05:14:34;;;;;;;33.53;16.40;;;;;;;6.94;84.33;94353.38;5058751;28;20178;-80
2021/12/27 05:17:00;;;;;;;18.73;9.97;;;;;;;7.07;83.53;94369.09;5063608;28;20180;-80
2021/12/27 05:19:25;;;;;;;17.80;10.90;;;;;;;7.12;83.48;94371.09;5060307;28;20171;-81
2021/12/27 05:21:51;;;;;;;22.97;11.47;;;;;;;7.24;82.74;94353.81;5052103;28;20217;-80
2021/12/27 05:24:18;;;;;;;17.27;9.47;;;;;;;7.34;81.97;94363.88;5052348;28;20158;-80
2021/12/27 05:26:43;;;;;;;28.00;13.40;;;;;;;7.38;82.52;94414.78;5061458;28;20187;-81
2021/12/27 05:29:10;;;;;;;25.37;13.00;;;;;;;7.29;83.31;94393.25;5062605;28;20221;-81
2021/12/27 05:31:37;;;;;;;25.50;12.30;;;;;;;7.37;83.36;94363.44;5056038;28;20213;-80
2021/12/27 05:34:03;;;;;;;18.03;10.70;;;;;;;7.45;82.41;94384.16;5059081;28;20174;-80
2021/12/27 05:36:28;;;;;;;18.23;10.60;;;;;;;7.46;82.46;94368.25;5062301;28;20171;-80
2021/12/27 05:38:56;;;;;;;21.90;12.33;;;;;;;7.54;82.56;94380.34;5061276;28;20228;-80
2021/12/27 05:41:22;;;;;;;47.83;21.57;;;;;;;7.31;82.81;94378.16;5057451;28;20174;-80
2021/12/27 05:43:47;;;;;;;27.93;13.27;;;;;;;7.30;83.07;94375.72;5064247;28;20616;-80
2021/12/27 05:46:13;;;;;;;31.87;15.67;;;;;;;7.17;82.77;94369.50;5063302;28;20179;-80
2021/12/27 05:48:38;;;;;;;33.47;15.20;;;;;;;7.28;83.53;94373.31;5058821;28;20198;-80
2021/12/27 05:51:04;;;;;;;30.57;15.23;;;;;;;7.32;83.53;94376.34;5060688;28;20182;-80
2021/12/27 05:53:29;;;;;;;24.90;13.60;;;;;;;7.15;83.39;94361.06;5063843;28;20210;-80
2021/12/27 05:55:54;;;;;;;31.17;15.40;;;;;;;7.32;83.69;94377.16;5061124;28;20230;-80
2021/12/27 05:58:20;;;;;;;31.10;13.87;;;;;;;7.27;83.23;94394.44;5060465;28;20209;-80
2021/12/27 06:00:45;;;;;;;26.33;12.97;;;;;;;7.40;83.48;94356.00;5064714;28;20201;-80
2021/12/27 06:03:10;;;;;;;28.10;15.67;;;;;;;7.34;83.56;94388.22;5060986;28;20179;-80
2021/12/27 06:05:36;;;;;;;29.83;16.17;;;;;;;7.10;83.70;94357.41;5059682;28;20187;-81
2021/12/27 06:08:02;;;;;;;25.77;14.53;;;;;;;7.12;84.01;94374.53;5060551;28;20190;-80
2021/12/27 06:10:27;;;;;;;28.37;14.43;;;;;;;7.13;83.81;94349.97;5058621;28;20195;-80
2021/12/27 06:12:53;;;;;;;25.17;13.00;;;;;;;7.26;83.56;94369.31;5068550;28;20170;-80
2021/12/27 06:15:18;;;;;;;21.80;12.07;;;;;;;7.20;83.25;94363.84;5057889;28;20270;-80
2021/12/27 06:17:44;;;;;;;17.50;10.53;;;;;;;7.01;83.65;94343.72;5067731;28;20179;-80
2021/12/27 06:20:13;;;;;;;20.53;11.73;;;;;;;7.24;83.50;94369.50;5061440;28;20231;-80
2021/12/27 06:22:45;;;;;;;20.43;11.73;;;;;;;7.11;83.35;94341.50;5063683;28;20174;-80
2021/12/27 06:25:11;;;;;;;27.23;15.33;;;;;;;7.39;83.07;94377.94;5065353;28;20172;-80
2021/12/27 06:27:37;;;;;;;29.17;16.70;;;;;;;7.42;82.94;94372.31;5066632;28;20573;-80
2021/12/27 06:30:07;;;;;;;28.67;15.97;;;;;;;7.16;82.65;94330.44;5059649;28;20233;-80
2021/12/27 06:32:33;;;;;;;21.03;11.33;;;;;;;7.25;82.42;94354.59;5062848;28;20226;-80
2021/12/27 06:34:58;;;;;;;19.83;11.07;;;;;;;7.27;83.19;94363.84;5071606;28;20181;-80
2021/12/27 06:37:24;;;;;;;20.43;11.50;;;;;;;7.40;83.46;94358.63;5063785;28;20171;-80
2021/12/27 06:39:49;;;;;;;18.37;10.00;;;;;;;7.31;82.68;94332.84;5070842;28;20163;-80
2021/12/27 06:42:15;;;;;;;20.17;12.23;;;;;;;7.33;82.63;94346.53;5065289;28;20179;-80
2021/12/27 06:44:40;;;;;;;18.60;10.83;;;;;;;7.01;82.98;94316.75;5062696;28;20171;-80
2021/12/27 06:47:05;;;;;;;25.47;12.17;;;;;;;7.34;83.41;94335.06;5069189;28;20170;-80
2021/12/27 06:49:35;;;;;;;23.07;13.00;;;;;;;7.36;83.05;94361.81;5055470;28;20227;-80
2021/12/27 06:52:02;;;;;;;27.63;14.77;;;;;;;7.30;83.44;94326.00;5055939;28;20205;-81
2021/12/27 06:54:28;;;;;;;30.57;17.27;;;;;;;7.57;83.00;94332.81;5059269;28;20190;-81
2021/12/27 06:56:59;;;;;;;22.07;11.90;;;;;;;7.93;81.84;94348.03;5056537;28;20215;-80
2021/12/27 06:59:26;;;;;;;30.73;15.57;;;;;;;8.05;80.68;94329.81;5066460;28;20616;-80
2021/12/27 07:01:51;;;;;;;29.13;17.57;;;;;;;8.22;80.35;94323.09;5068645;28;20251;-80
2021/12/27 07:04:17;;;;;;;35.00;19.13;;;;;;;8.27;79.65;94321.47;5071900;28;20214;-80
2021/12/27 07:06:42;;;;;;;24.23;14.23;;;;;;;8.47;79.03;94324.00;5062413;28;20166;-81
2021/12/27 07:09:08;;;;;;;20.93;11.43;;;;;;;8.59;78.99;94321.50;5062410;28;20199;-81
2021/12/27 07:11:34;;;;;;;20.00;9.53;;;;;;;8.59;77.70;94340.66;5067204;28;20233;-81
2021/12/27 07:13:59;;;;;;;18.27;9.37;;;;;;;8.60;78.45;94342.28;5071771;28;20170;-81
2021/12/27 07:16:26;;;;;;;20.47;11.50;;;;;;;8.50;78.85;94322.75;5071006;28;20225;-81
2021/12/27 07:18:52;;;;;;;21.87;10.73;;;;;;;8.61;78.35;94337.84;5070219;28;20169;-81
2021/12/27 07:21:17;;;;;;;14.23;8.63;;;;;;;8.72;78.42;94333.75;5064333;28;20175;-81
2021/12/27 07:23:44;;;;;;;12.67;7.67;;;;;;;8.73;78.14;94330.09;5060666;28;20180;-81
2021/12/27 07:26:10;;;;;;;15.30;7.97;;;;;;;8.86;77.95;94357.06;5056666;28;20258;-81
2021/12/27 07:28:35;;;;;;;7.90;4.80;;;;;;;8.94;76.53;94354.16;5054075;28;20258;-81
2021/12/27 07:31:01;;;;;;;11.13;5.80;;;;;;;9.02;76.34;94342.59;5054126;28;20170;-80
2021/12/27 07:33:26;;;;;;;21.27;11.40;;;;;;;9.04;76.63;94351.06;5053995;28;20171;-81
2021/12/27 07:35:52;;;;;;;22.47;12.97;;;;;;;9.03;76.67;94352.09;5068539;28;20223;-81
2021/12/27 07:38:17;;;;;;;42.33;19.53;;;;;;;8.99;76.74;94345.66;5068001;28;20179;-81
2021/12/27 07:40:43;;;;;;;23.07;11.70;;;;;;;9.10;77.33;94344.97;5065340;28;20634;-81
2021/12/27 07:43:08;;;;;;;13.07;7.40;;;;;;;9.16;75.75;94351.19;5064133;28;20296;-81
2021/12/27 07:45:34;;;;;;;13.10;6.90;;;;;;;9.15;75.80;94346.97;5065983;28;20235;-80
2021/12/27 07:47:59;;;;;;;13.13;6.87;;;;;;;9.06;76.19;94312.28;5060032;28;20190;-80
2021/12/27 07:50:25;;;;;;;16.97;10.13;;;;;;;9.03;76.54;94331.88;5064796;28;20620;-80
2021/12/27 07:52:51;;;;;;;15.30;8.87;;;;;;;9.03;76.19;94320.59;5067056;28;20170;-80
2021/12/27 07:55:17;;;;;;;11.00;6.57;;;;;;;9.19;76.09;94333.16;5064699;28;20197;-81
2021/12/27 07:57:44;;;;;;;10.47;6.60;;;;;;;9.17;75.83;94340.44;5064163;28;20222;-81
2021/12/27 08:00:10;;;;;;;11.67;7.03;;;;;;;9.00;77.12;94339.38;5062282;28;20235;-81
2021/12/27 08:02:37;;;;;;;16.90;10.03;;;;;;;8.98;77.37;94349.31;5062053;28;20238;-80
2021/12/27 08:05:04;;;;;;;29.20;15.50;;;;;;;8.95;77.69;94328.72;5065304;28;20669;-81
2021/12/27 08:07:30;;;;;;;19.27;9.67;;;;;;;8.89;76.99;94319.09;5063405;28;20247;-81
2021/12/27 08:09:55;;;;;;;11.17;7.10;;;;;;;8.95;76.65;94300.66;5059876;28;20230;-81
2021/12/27 08:12:21;;;;;;;14.97;9.07;;;;;;;9.05;77.06;94363.19;5064448;28;20178;-81
2021/12/27 08:14:46;;;;;;;14.53;8.63;;;;;;;8.76;77.36;94293.72;5066808;28;20660;-81
2021/12/27 08:17:13;;;;;;;14.23;8.30;;;;;;;8.93;77.77;94291.38;5065693;28;20252;-81
2021/12/27 08:19:38;;;;;;;13.20;7.13;;;;;;;9.14;76.71;94309.41;5070609;28;20172;-81
2021/12/27 08:22:04;;;;;;;13.70;7.27;;;;;;;9.14;76.66;94324.34;5058095;28;20580;-81
2021/12/27 08:24:29;;;;;;;24.37;11.97;;;;;;;9.21;77.48;94330.34;5058428;28;20179;-81
2021/12/27 08:26:55;;;;;;;31.40;17.33;;;;;;;9.23;77.92;94336.19;5063675;28;20190;-81
2021/12/27 08:29:21;;;;;;;18.83;10.83;;;;;;;9.33;76.49;94320.75;5063899;28;20251;-81
2021/12/27 08:31:46;;;;;;;19.83;10.87;;;;;;;9.43;76.87;94321.84;5054969;28;20171;-80
2021/12/27 08:34:12;;;;;;;18.10;8.93;;;;;;;9.29;76.02;94309.84;5064802;28;20575;-80
2021/12/27 08:36:37;;;;;;;19.23;9.60;;;;;;;9.48;76.12;94328.28;5061484;28;20258;-81
2021/12/27 08:39:03;;;;;;;14.23;8.87;;;;;;;9.50;76.12;94315.72;5058386;28;20185;-80
2021/12/27 08:41:29;;;;;;;14.93;7.10;;;;;;;9.59;75.36;94312.59;5058961;28;20167;-80
2021/12/27 08:44:00;;;;;;;17.43;8.83;;;;;;;9.44;75.88;94312.94;5058225;28;20179;-81
2021/12/27 08:46:26;;;;;;;13.77;7.80;;;;;;;9.64;75.75;94296.97;5055609;28;20179;-81
2021/12/27 08:48:52;;;;;;;13.47;7.53;;;;;;;9.65;75.66;94253.13;5052391;28;20255;-81
2021/12/27 08:51:18;;;;;;;13.90;7.23;;;;;;;9.78;75.34;94303.69;5057191;28;20257;-81
2021/12/27 08:53:43;;;;;;;12.17;6.80;;;;;;;9.33;76.28;94286.59;5060641;28;20251;-80
2021/12/27 08:56:09;;;;;;;15.40;7.57;;;;;;;9.54;77.25;94306.38;5060188;28;20223;-80
2021/12/27 08:58:34;;;;;;;11.37;7.03;;;;;;;9.42;76.41;94332.59;5062375;28;20236;-80
2021/12/27 09:01:00;;;;;;;12.83;7.40;;;;;;;9.46;76.41;94296.97;5057251;28;20631;-78
2021/12/27 09:03:25;;;;;;;11.33;6.93;;;;;;;9.56;75.70;94280.69;5065182;28;20183;-81
2021/12/27 09:05:50;;;;;;;10.43;5.83;;;;;;;9.72;75.38;94282.75;5055521;28;21213;-80
2021/12/27 09:08:16;;;;;;;13.83;6.20;;;;;;;9.59;75.49;94269.75;5060753;28;20270;-80
2021/12/27 09:10:42;;;;;;;13.00;6.47;;;;;;;9.70;75.87;94250.63;5059319;28;20211;-80
2021/12/27 09:13:07;;;;;;;10.77;6.80;;;;;;;10.00;75.23;94292.75;5061144;28;20627;-80
2021/12/27 09:15:33;;;;;;;14.10;6.67;;;;;;;9.86;74.57;94242.13;5058131;28;20258;-80
2021/12/27 09:17:58;;;;;;;29.03;11.10;;;;;;;10.29;74.09;94249.88;5059480;28;20198;-80
2021/12/27 09:20:26;;;;;;;41.30;11.20;;;;;;;10.37;72.84;94254.06;5061385;28;20206;-81
2021/12/27 09:22:52;;;;;;;14.87;7.40;;;;;;;10.34;73.45;94262.38;5057650;28;20174;-81
2021/12/27 09:25:17;;;;;;;30.07;19.63;;;;;;;10.20;73.93;94236.25;5063719;28;20275;-80
2021/12/27 09:27:43;;;;;;;56.03;34.87;;;;;;;10.32;74.44;94259.97;5062957;28;20178;-81
2021/12/27 09:30:09;;;;;;;86.13;54.47;;;;;;;10.21;74.29;94243.13;5063835;28;20194;-80
2021/12/27 09:32:35;;;;;;;93.80;52.93;;;;;;;10.16;74.70;94214.03;5060984;28;20281;-82
2021/12/27 09:35:01;;;;;;;64.07;40.50;;;;;;;10.21;74.25;94208.91;5067694;28;20669;-83
2021/12/27 09:37:26;;;;;;;54.37;34.83;;;;;;;10.43;73.52;94248.69;5064814;28;20171;-81
2021/12/27 09:39:54;;;;;;;49.43;28.93;;;;;;;10.47;73.48;94239.31;5062180;28;20257;-77
2021/12/27 09:42:22;;;;;;;42.03;26.03;;;;;;;10.45;73.12;94235.31;5062099;28;20178;-78
2021/12/27 09:44:48;;;;;;;37.20;22.60;;;;;;;10.41;73.50;94213.91;5062057;28;20249;-81
2021/12/27 09:47:13;;;;;;;34.00;22.47;;;;;;;10.45;73.95;94201.09;5065183;28;20294;-79
2021/12/27 09:49:39;;;;;;;34.57;21.30;;;;;;;10.65;73.57;94222.63;5066553;28;20749;-79
2021/12/27 09:52:05;;;;;;;42.63;25.97;;;;;;;10.62;73.66;94223.09;5061290;28;20187;-76
2021/12/27 09:54:30;;;;;;;50.60;28.50;;;;;;;10.23;74.40;94142.94;5056836;28;20983;-79
2021/12/27 09:56:56;;;;;;;46.20;25.30;;;;;;;10.62;73.59;94188.91;5066142;28;20887;-77
2021/12/27 09:59:22;;;;;;;44.57;25.27;;;;;;;10.65;73.70;94196.31;5068157;28;20667;-81
2021/12/27 10:01:48;;;;;;;43.13;23.80;;;;;;;10.64;72.23;94199.19;5055085;28;20602;-80
2021/12/27 10:04:14;;;;;;;33.27;18.80;;;;;;;10.62;72.69;94207.31;5068033;28;20174;-81
2021/12/27 10:06:41;;;;;;;29.57;16.37;;;;;;;10.69;72.50;94180.88;5062163;28;20171;-79
2021/12/27 10:09:06;;;;;;;25.07;15.53;;;;;;;10.93;72.17;94200.91;5064347;28;20700;-77
2021/12/27 10:11:34;;;;;;;28.23;16.07;;;;;;;10.86;71.85;94214.22;5057895;28;20179;-80
2021/12/27 10:14:18;;;;;;;26.90;12.97;;;;;;;10.82;71.86;94207.78;5052207;28;20167;-78
2021/12/27 10:16:47;;;;;;;14.53;9.10;;;;;;;10.74;71.64;94176.53;5064050;28;20613;-80
2021/12/27 10:19:18;;;;;;;13.87;8.20;;;;;;;10.98;71.73;94201.81;5066688;28;20183;-79
2021/12/27 10:21:46;;;;;;;15.07;8.10;;;;;;;11.03;71.31;94213.53;5066110;28;20653;-80
2021/12/27 10:24:27;;;;;;;15.13;7.93;;;;;;;11.01;71.69;94207.69;5059188;28;20194;-80
2021/12/27 10:26:54;;;;;;;16.57;8.10;;;;;;;11.01;71.88;94212.94;5059380;28;20266;-81
2021/12/27 10:29:26;;;;;;;14.70;9.10;;;;;;;10.93;72.11;94195.66;5062422;28;20198;-82
2021/12/27 10:32:09;;;;;;;19.63;7.27;;;;;;;11.02;71.19;94199.56;5060819;28;20221;-82
2021/12/27 10:34:51;;;;;;;12.83;7.07;;;;;;;11.00;71.49;94203.44;5059061;28;20188;-81
2021/12/27 10:37:29;;;;;;;16.37;7.13;;;;;;;11.02;71.65;94198.75;5065866;28;20178;-82
2021/12/27 10:40:02;;;;;;;13.67;7.23;;;;;;;10.95;71.79;94156.75;5062806;28;20163;-81
2021/12/27 10:42:40;;;;;;;13.47;5.57;;;;;;;11.22;70.59;94189.47;5068304;28;20257;-81
2021/12/27 10:45:12;;;;;;;39.63;17.57;;;;;;;11.19;71.18;94194.38;5065129;28;20599;-81
2021/12/27 10:48:02;;;;;;;31.40;16.03;;;;;;;11.24;71.56;94163.66;5060367;28;20183;-81
2021/12/27 10:50:31;;;;;;;22.30;10.10;;;;;;;11.47;71.33;94188.41;5059449;28;20225;-81
2021/12/27 10:53:04;;;;;;;10.40;4.70;;;;;;;11.75;69.97;94163.94;5060694;28;20174;-81
2021/12/27 10:55:34;;;;;;;7.07;3.90;;;;;;;11.79;67.25;94130.78;5063230;28;20250;-79
2021/12/27 10:58:28;;;;;;;7.30;4.17;;;;;;;12.22;67.00;94159.25;5065132;28;20782;-81
2021/12/27 11:01:07;;;;;;;7.43;2.80;;;;;;;12.62;63.78;94185.53;5064346;28;20599;-82
2021/12/27 11:03:39;;;;;;;98.90;37.40;;;;;;;12.88;63.47;94155.03;5059808;28;20170;-82
2021/12/27 11:06:08;;;;;;;1280.87;815.77;;;;;;;13.07;62.84;94154.50;5059550;28;20171;-81
2021/12/27 11:08:35;;;;;;;1913.10;999.90;;;;;;;13.30;62.86;94155.38;5064158;28;20178;-82
2021/12/27 11:11:04;;;;;;;1799.60;999.90;;;;;;;13.38;62.37;94157.59;5065635;28;20178;-81
2021/12/27 11:13:32;;;;;;;419.97;199.50;;;;;;;13.46;61.63;94160.63;5058983;28;20231;-82
2021/12/27 11:15:58;;;;;;;105.30;93.87;;;;;;;13.40;61.34;94129.88;5060250;28;20668;-81
2021/12/27 11:18:24;;;;;;;8.30;6.43;;;;;;;13.26;61.74;94127.84;5061961;28;20176;-81
2021/12/27 11:20:53;;;;;;;7.93;5.03;;;;;;;13.35;61.86;94143.03;5060534;28;20184;-81
2021/12/27 11:23:21;;;;;;;11.80;4.00;;;;;;;13.40;61.23;94163.44;5063879;28;20285;-81
2021/12/27 11:25:47;;;;;;;11.10;8.67;;;;;;;13.34;61.36;94146.72;5051607;28;20261;-81
2021/12/27 11:28:43;;;;;;;9.50;7.17;;;;;;;13.25;61.63;94156.09;5051671;28;20187;-81